Time;durP1;ratioP1;P1;durP2;ratioP2;P2;SDS_P1;SDS_P2;PMS_P1;PMS_P2;Temp;Humidity;BMP_temperature;BMP_pressure;BME280_temperature;BME280_humidity;BME280_pressure;Samples;Min_cycle;Max_cycle;Signal;HPM_P1;HPM_P2
2021/05/26 00:01:10;;;;;;;3.42;1.02;;;14.30;99.90;;;;;;5038335;28;20052;-80
2021/05/26 00:03:36;;;;;;;5.20;1.40;;;14.40;99.90;;;;;;5038001;28;20412;-80
2021/05/26 00:06:02;;;;;;;4.18;1.70;;;14.40;99.90;;;;;;5037955;28;20106;-80
2021/05/26 00:08:33;;;;;;;2.85;0.90;;;14.30;99.90;;;;;;5037865;28;20474;-80
2021/05/26 00:11:01;;;;;;;5.07;1.33;;;14.30;99.90;;;;;;5037598;28;20041;-79
2021/05/26 00:13:28;;;;;;;4.50;1.58;;;14.30;99.90;;;;;;5037816;28;20026;-80
2021/05/26 00:15:54;;;;;;;4.03;1.23;;;14.30;99.90;;;;;;5037605;28;20063;-80
2021/05/26 00:18:20;;;;;;;3.60;1.30;;;14.30;99.90;;;;;;5037660;28;20029;-79
2021/05/26 00:20:47;;;;;;;5.75;1.33;;;14.30;99.90;;;;;;5037329;28;20104;-79
2021/05/26 00:23:14;;;;;;;2.17;1.00;;;14.30;99.90;;;;;;5037731;28;20101;-79
2021/05/26 00:25:40;;;;;;;3.92;1.27;;;14.20;99.90;;;;;;5037579;28;20029;-79
2021/05/26 00:28:05;;;;;;;2.28;1.15;;;14.20;99.90;;;;;;5037467;28;20632;-80
2021/05/26 00:30:33;;;;;;;4.85;1.10;;;14.20;99.90;;;;;;5026608;28;20022;-79
2021/05/26 00:32:59;;;;;;;3.83;1.25;;;14.20;99.90;;;;;;5017731;28;20018;-80
2021/05/26 00:35:25;;;;;;;2.05;1.02;;;14.20;99.90;;;;;;5017656;28;20033;-79
2021/05/26 00:37:51;;;;;;;3.47;1.45;;;14.30;99.90;;;;;;5017558;28;20370;-80
2021/05/26 00:40:17;;;;;;;6.00;1.20;;;14.30;99.90;;;;;;5016509;28;20041;-79
2021/05/26 00:42:44;;;;;;;4.18;1.20;;;14.20;99.90;;;;;;5016660;28;20046;-79
2021/05/26 00:45:10;;;;;;;1.75;1.10;;;14.20;99.90;;;;;;5017221;28;20044;-79
2021/05/26 00:47:45;;;;;;;3.63;1.50;;;14.20;99.90;;;;;;5017525;28;20042;-80
2021/05/26 00:50:34;;;;;;;8.80;1.20;;;14.20;99.90;;;;;;5017735;28;20036;-79
2021/05/26 00:53:02;;;;;;;5.28;1.85;;;14.20;99.90;;;;;;5018047;28;20068;-79
2021/05/26 00:55:29;;;;;;;1.50;1.10;;;14.30;99.90;;;;;;5018008;28;20116;-79
2021/05/26 00:57:55;;;;;;;9.85;1.30;;;14.20;99.90;;;;;;5017712;28;20098;-80
2021/05/26 01:00:23;;;;;;;3.47;1.30;;;14.20;99.90;;;;;;5017134;28;20024;-78
2021/05/26 01:02:51;;;;;;;1.38;0.90;;;14.20;99.90;;;;;;5017752;28;20085;-80
2021/05/26 01:05:18;;;;;;;2.60;1.10;;;14.20;99.90;;;;;;5017932;28;20038;-80
2021/05/26 01:07:44;;;;;;;8.20;1.10;;;14.20;99.90;;;;;;5016786;28;20105;-80
2021/05/26 01:10:12;;;;;;;4.97;1.10;;;14.00;99.90;;;;;;5014355;28;20100;-80
2021/05/26 01:12:38;;;;;;;4.70;1.48;;;13.90;99.90;;;;;;5014569;28;20022;-80
2021/05/26 01:15:06;;;;;;;2.08;1.10;;;13.90;99.90;;;;;;5014460;28;20036;-79
2021/05/26 01:17:34;;;;;;;3.40;0.98;;;13.80;99.90;;;;;;5014326;28;20022;-79
2021/05/26 01:19:59;;;;;;;3.30;1.08;;;13.70;99.90;;;;;;5014317;28;20493;-79
2021/05/26 01:22:25;;;;;;;4.35;1.10;;;13.60;99.90;;;;;;5014554;28;20030;-79
2021/05/26 01:24:51;;;;;;;4.28;1.00;;;13.60;99.90;;;;;;5014400;28;20026;-80
2021/05/26 01:27:17;;;;;;;2.70;1.23;;;13.60;99.90;;;;;;5013377;28;20538;-79
2021/05/26 01:29:43;;;;;;;2.97;1.23;;;13.50;99.90;;;;;;4995621;28;20022;-80
2021/05/26 01:32:09;;;;;;;1.15;1.05;;;13.50;99.90;;;;;;5012782;28;20021;-80
2021/05/26 01:34:34;;;;;;;2.28;1.20;;;13.50;99.90;;;;;;5012462;28;20044;-79
2021/05/26 01:37:00;;;;;;;1.88;1.10;;;13.50;99.90;;;;;;5012673;28;20048;-80
2021/05/26 01:39:26;;;;;;;3.95;1.20;;;13.40;99.90;;;;;;5012902;28;20036;-79
2021/05/26 01:41:52;;;;;;;6.78;1.52;;;13.50;99.90;;;;;;5013439;28;20028;-80
2021/05/26 01:44:17;;;;;;;2.33;1.10;;;13.50;99.90;;;;;;5013906;28;20093;-80
2021/05/26 01:46:43;;;;;;;2.58;1.08;;;13.50;99.90;;;;;;5013961;28;20048;-79
2021/05/26 01:49:09;;;;;;;7.90;1.45;;;13.50;99.90;;;;;;5013396;28;20069;-80
2021/05/26 01:51:36;;;;;;;5.90;1.52;;;13.40;99.90;;;;;;5000893;28;20034;-81
2021/05/26 01:54:03;;;;;;;1.92;1.35;;;13.50;99.90;;;;;;5013413;28;20068;-79
2021/05/26 01:56:31;;;;;;;2.03;1.25;;;13.50;99.90;;;;;;5014127;28;20034;-80
2021/05/26 01:58:57;;;;;;;1.30;1.02;;;13.40;99.90;;;;;;5013877;28;20081;-80
2021/05/26 02:01:25;;;;;;;3.42;1.33;;;13.40;99.90;;;;;;5014004;28;20048;-81
2021/05/26 02:03:51;;;;;;;3.30;1.38;;;13.40;99.90;;;;;;5013521;28;20021;-80
2021/05/26 02:06:19;;;;;;;3.78;1.30;;;13.30;99.90;;;;;;5013727;28;20529;-79
2021/05/26 02:08:50;;;;;;;1.88;1.10;;;13.30;99.90;;;;;;5013745;28;20037;-80
2021/05/26 02:14:02;;;;;;;2.63;1.60;;;13.30;99.90;;;;;;5013657;28;20493;-79
2021/05/26 02:16:28;;;;;;;3.97;1.55;;;13.30;99.90;;;;;;5012989;28;20034;-80
2021/05/26 02:18:54;;;;;;;3.90;1.40;;;13.30;99.90;;;;;;5013351;28;20022;-80
2021/05/26 02:21:20;;;;;;;5.63;1.42;;;13.20;99.90;;;;;;5012140;28;20034;-80
2021/05/26 02:23:46;;;;;;;2.92;1.52;;;13.20;99.90;;;;;;4995792;28;20030;-80
2021/05/26 02:26:12;;;;;;;2.03;1.30;;;13.20;99.90;;;;;;5012932;28;20526;-79
2021/05/26 02:28:39;;;;;;;4.28;1.55;;;13.20;99.90;;;;;;5013269;28;20117;-79
2021/05/26 02:31:05;;;;;;;4.80;1.30;;;13.20;99.90;;;;;;5012968;28;20025;-80
2021/05/26 02:33:31;;;;;;;5.13;1.52;;;13.20;99.90;;;;;;5013198;28;20076;-80
2021/05/26 02:35:57;;;;;;;2.50;1.42;;;13.10;99.90;;;;;;5013094;28;20137;-79
2021/05/26 02:38:22;;;;;;;2.95;1.20;;;13.10;99.90;;;;;;5012667;28;20092;-80
2021/05/26 02:40:48;;;;;;;3.42;2.05;;;13.10;99.90;;;;;;5012768;28;20046;-79
2021/05/26 02:43:14;;;;;;;2.67;1.30;;;13.10;99.90;;;;;;5013123;28;20022;-80
2021/05/26 02:45:39;;;;;;;5.82;1.75;;;13.10;99.90;;;;;;5013007;28;20060;-79
2021/05/26 02:48:06;;;;;;;14.07;2.00;;;13.00;99.90;;;;;;5013133;28;20050;-80
2021/05/26 02:50:32;;;;;;;3.30;1.27;;;13.10;99.90;;;;;;5012533;28;20034;-79
2021/05/26 02:52:58;;;;;;;2.88;1.30;;;13.00;99.90;;;;;;5012309;28;20101;-79
2021/05/26 02:55:25;;;;;;;5.70;1.30;;;13.00;99.90;;;;;;4995151;28;20117;-79
2021/05/26 02:57:50;;;;;;;3.28;1.40;;;13.00;99.90;;;;;;4995117;28;20052;-80
2021/05/26 03:00:19;;;;;;;5.28;1.52;;;13.00;99.90;;;;;;4995210;28;20479;-79
2021/05/26 03:02:45;;;;;;;3.70;1.40;;;12.90;99.90;;;;;;5012712;28;20069;-79
2021/05/26 03:05:12;;;;;;;3.45;1.30;;;12.90;99.90;;;;;;5012687;28;20117;-79
2021/05/26 03:07:39;;;;;;;1.45;1.20;;;12.90;99.90;;;;;;5012803;28;20390;-79
2021/05/26 03:10:07;;;;;;;4.32;1.20;;;12.90;99.90;;;;;;4994717;28;20117;-80
2021/05/26 03:12:33;;;;;;;8.27;2.03;;;12.90;99.90;;;;;;5012167;28;20049;-80
2021/05/26 03:14:59;;;;;;;3.28;1.20;;;12.80;99.90;;;;;;5011490;28;20474;-79
2021/05/26 03:17:28;;;;;;;2.58;1.10;;;12.80;99.90;;;;;;5012360;28;20454;-79
2021/05/26 03:19:57;;;;;;;1.80;1.33;;;12.80;99.90;;;;;;5011840;28;20049;-79
2021/05/26 03:22:23;;;;;;;4.22;1.27;;;12.80;99.90;;;;;;5012140;28;20497;-79
2021/05/26 03:24:49;;;;;;;9.75;1.55;;;12.80;99.90;;;;;;5012297;28;20025;-79
2021/05/26 03:27:15;;;;;;;5.78;2.20;;;12.80;99.90;;;;;;5012372;28;20018;-79
2021/05/26 03:29:40;;;;;;;3.47;1.27;;;12.70;99.90;;;;;;5012205;28;20026;-80
2021/05/26 03:32:06;;;;;;;3.38;1.73;;;12.70;99.90;;;;;;5011814;28;20359;-79
2021/05/26 03:34:32;;;;;;;1.33;1.10;;;12.70;99.90;;;;;;4994680;28;20026;-80
2021/05/26 03:36:58;;;;;;;4.20;1.92;;;12.70;99.90;;;;;;5011371;28;20025;-80
2021/05/26 03:39:24;;;;;;;2.60;1.30;;;12.80;99.90;;;;;;5011824;28;20375;-80
2021/05/26 03:41:49;;;;;;;1.35;1.20;;;12.80;99.90;;;;;;5011343;28;20065;-78
2021/05/26 03:44:15;;;;;;;2.70;1.25;;;12.80;99.90;;;;;;5006290;28;20111;-79
2021/05/26 03:46:41;;;;;;;7.95;1.50;;;12.80;99.90;;;;;;4994296;28;20030;-79
2021/05/26 03:49:07;;;;;;;2.88;1.60;;;12.80;99.90;;;;;;5011628;28;20073;-80
2021/05/26 03:51:33;;;;;;;4.32;1.50;;;12.80;99.90;;;;;;5012034;28;20470;-80
2021/05/26 03:53:59;;;;;;;2.42;1.42;;;12.80;99.90;;;;;;5011863;28;20489;-79
2021/05/26 03:56:25;;;;;;;7.00;1.33;;;12.80;99.90;;;;;;5012169;28;20113;-80
2021/05/26 03:58:51;;;;;;;2.40;1.60;;;12.90;99.90;;;;;;5011422;28;20113;-79
2021/05/26 04:01:17;;;;;;;2.85;1.58;;;12.90;99.90;;;;;;5011755;28;20022;-79
2021/05/26 04:03:42;;;;;;;4.63;1.50;;;12.90;99.90;;;;;;5011785;28;20033;-79
2021/05/26 04:06:09;;;;;;;4.20;1.20;;;12.90;99.90;;;;;;5011686;28;20105;-79
2021/05/26 04:08:36;;;;;;;6.15;1.40;;;12.90;99.90;;;;;;5011772;28;20014;-79
2021/05/26 04:11:03;;;;;;;4.28;1.65;;;12.90;99.90;;;;;;5011585;28;20441;-79
2021/05/26 04:13:29;;;;;;;7.93;1.88;;;13.00;99.90;;;;;;4994675;28;20054;-80
2021/05/26 04:15:54;;;;;;;3.67;1.60;;;13.00;99.90;;;;;;4994025;28;20034;-79
2021/05/26 04:18:20;;;;;;;2.75;1.40;;;13.10;99.90;;;;;;5011328;28;20025;-79
2021/05/26 04:20:46;;;;;;;3.22;1.20;;;13.20;99.90;;;;;;5011421;28;20073;-80
2021/05/26 04:23:12;;;;;;;3.63;1.60;;;13.30;99.90;;;;;;5011643;28;20374;-79
2021/05/26 04:25:38;;;;;;;5.63;1.20;;;14.00;99.90;;;;;;5011273;28;20150;-80
2021/05/26 04:28:07;;;;;;;2.67;1.10;;;14.80;99.90;;;;;;5009657;28;20437;-79
2021/05/26 04:30:33;;;;;;;2.40;1.10;;;14.90;99.90;;;;;;5009701;28;20437;-79
2021/05/26 04:32:59;;;;;;;4.30;1.40;;;15.50;99.90;;;;;;5011619;28;20100;-80
2021/05/26 04:35:25;;;;;;;2.35;1.10;;;16.30;99.90;;;;;;5010979;28;20069;-80
2021/05/26 04:37:50;;;;;;;6.93;1.35;;;16.80;99.90;;;;;;5010712;28;20085;-79
2021/05/26 04:40:17;;;;;;;5.03;1.40;;;17.20;99.90;;;;;;5011060;28;20152;-80
2021/05/26 04:42:45;;;;;;;1.38;0.90;;;17.70;99.90;;;;;;5011249;28;20022;-80
2021/05/26 04:45:11;;;;;;;1.70;1.30;;;18.10;99.90;;;;;;4997307;28;20053;-79
2021/05/26 04:47:37;;;;;;;3.92;1.50;;;18.30;99.90;;;;;;5015270;28;20494;-80
2021/05/26 04:50:04;;;;;;;3.55;1.42;;;18.70;99.90;;;;;;5014630;28;20034;-80
2021/05/26 04:52:29;;;;;;;10.32;1.35;;;18.50;99.90;;;;;;5014590;28;20547;-79
2021/05/26 04:54:55;;;;;;;2.33;0.98;;;18.80;99.90;;;;;;4997123;28;20033;-80
2021/05/26 04:57:21;;;;;;;2.03;1.10;;;18.90;99.90;;;;;;5014803;28;20028;-80
2021/05/26 04:59:46;;;;;;;4.53;1.10;;;19.50;99.90;;;;;;5015425;28;20142;-82
2021/05/26 05:02:12;;;;;;;1.75;1.02;;;19.90;99.90;;;;;;5014809;28;20026;-80
2021/05/26 05:04:38;;;;;;;4.22;1.48;;;19.90;99.90;;;;;;5022569;28;20029;-80
2021/05/26 05:07:03;;;;;;;3.72;1.08;;;20.00;99.90;;;;;;5014978;28;20021;-80
2021/05/26 05:09:29;;;;;;;5.43;1.10;;;20.40;99.90;;;;;;5015046;28;20057;-80
2021/05/26 05:11:55;;;;;;;1.65;1.00;;;20.40;99.90;;;;;;5021319;28;20375;-80
2021/05/26 05:14:21;;;;;;;3.30;1.00;;;20.80;99.90;;;;;;5014320;28;20026;-81
2021/05/26 05:16:46;;;;;;;2.58;1.10;;;21.20;99.90;;;;;;5014275;28;20083;-80
2021/05/26 05:19:12;;;;;;;3.53;1.00;;;22.50;99.90;;;;;;5014475;28;20014;-80
2021/05/26 05:21:38;;;;;;;2.65;1.08;;;22.10;99.90;;;;;;5014663;28;20028;-81
2021/05/26 05:24:04;;;;;;;2.72;1.48;;;22.50;99.90;;;;;;5014408;28;20110;-80
2021/05/26 05:26:30;;;;;;;3.58;1.40;;;23.00;99.90;;;;;;4997217;28;20034;-81
2021/05/26 05:28:56;;;;;;;2.97;1.17;;;22.90;99.90;;;;;;5014245;28;20064;-80
2021/05/26 05:31:21;;;;;;;2.70;1.10;;;23.00;99.90;;;;;;5017091;28;20076;-81
2021/05/26 05:33:47;;;;;;;2.60;1.17;;;23.10;99.90;;;;;;5015562;28;20560;-80
2021/05/26 05:36:13;;;;;;;2.75;1.10;;;23.30;99.90;;;;;;4996321;28;20045;-79
2021/05/26 05:38:38;;;;;;;3.03;0.90;;;23.30;99.90;;;;;;5013875;28;20033;-79
2021/05/26 05:41:04;;;;;;;3.60;0.95;;;23.30;99.90;;;;;;5014260;28;20071;-79
2021/05/26 05:43:31;;;;;;;2.47;0.95;;;23.80;99.90;;;;;;5015668;28;20109;-79
2021/05/26 05:45:57;;;;;;;2.05;0.98;;;24.40;99.90;;;;;;5014024;28;20530;-79
2021/05/26 05:48:23;;;;;;;3.83;0.68;;;25.20;99.90;;;;;;5013641;28;20402;-80
2021/05/26 05:50:49;;;;;;;8.13;1.23;;;25.40;99.90;;;;;;5017667;28;20022;-81
2021/05/26 05:53:14;;;;;;;2.38;1.13;;;26.00;99.90;;;;;;5023354;28;20037;-80
2021/05/26 05:55:40;;;;;;;6.10;1.33;;;25.60;99.90;;;;;;5013318;28;20045;-81
2021/05/26 05:58:06;;;;;;;7.30;0.80;;;24.90;99.90;;;;;;5013520;28;20054;-81
2021/05/26 06:00:32;;;;;;;2.65;1.02;;;25.00;99.90;;;;;;5013397;28;20029;-81
2021/05/26 06:02:58;;;;;;;5.40;0.95;;;25.80;99.90;;;;;;5013416;28;20031;-80
2021/05/26 06:05:24;;;;;;;6.47;0.95;;;25.80;99.80;;;;;;5013579;28;20030;-80
2021/05/26 06:07:50;;;;;;;2.08;1.00;;;25.80;99.30;;;;;;5013436;28;20014;-80
2021/05/26 06:10:16;;;;;;;4.05;1.20;;;26.40;98.70;;;;;;5013684;28;20109;-80
2021/05/26 06:12:42;;;;;;;2.45;0.80;;;27.70;97.80;;;;;;5013438;28;20588;-81
2021/05/26 06:15:08;;;;;;;2.42;1.20;;;27.50;96.50;;;;;;5013118;28;20097;-80
2021/05/26 06:17:33;;;;;;;5.18;1.35;;;27.10;96.10;;;;;;5012529;28;20029;-79
2021/05/26 06:20:00;;;;;;;2.80;1.17;;;27.10;95.70;;;;;;5011965;28;20029;-80
2021/05/26 06:22:25;;;;;;;1.85;1.05;;;26.50;95.30;;;;;;5013314;28;20065;-80
2021/05/26 06:24:51;;;;;;;3.05;1.30;;;26.70;95.40;;;;;;5012875;28;20018;-81
2021/05/26 06:27:17;;;;;;;6.72;1.10;;;27.40;95.20;;;;;;4996410;28;20021;-81
2021/05/26 06:29:43;;;;;;;10.90;1.30;;;27.40;94.50;;;;;;5013112;28;20018;-80
2021/05/26 06:32:09;;;;;;;3.55;0.80;;;28.40;93.90;;;;;;5013174;28;20026;-82
2021/05/26 06:34:35;;;;;;;2.47;1.10;;;28.90;93.30;;;;;;5013258;28;20121;-81
2021/05/26 06:37:01;;;;;;;2.22;0.98;;;29.80;91.60;;;;;;4995396;28;20453;-80
2021/05/26 06:39:27;;;;;;;1.67;0.88;;;30.30;90.40;;;;;;4995187;28;20064;-79
2021/05/26 06:41:54;;;;;;;3.72;0.98;;;29.90;90.70;;;;;;5012944;28;20370;-80
2021/05/26 06:44:19;;;;;;;11.95;1.20;;;29.90;90.00;;;;;;5013316;28;20030;-83
2021/05/26 06:46:45;;;;;;;5.25;1.15;;;30.50;89.00;;;;;;5013267;28;20029;-81
2021/05/26 06:49:11;;;;;;;3.58;0.90;;;30.50;86.90;;;;;;5012920;28;20482;-80
2021/05/26 06:51:37;;;;;;;2.58;0.90;;;30.40;85.60;;;;;;5012494;28;20044;-82
2021/05/26 06:54:03;;;;;;;8.40;1.48;;;30.10;86.60;;;;;;5012710;28;20101;-81
2021/05/26 06:56:29;;;;;;;3.53;1.20;;;29.60;86.90;;;;;;5012623;28;20034;-79
2021/05/26 06:58:55;;;;;;;2.15;1.00;;;28.10;88.10;;;;;;5012306;28;20022;-80
2021/05/26 07:01:21;;;;;;;7.22;1.08;;;26.70;90.00;;;;;;4998074;28;20034;-80
2021/05/26 07:03:49;;;;;;;10.95;1.40;;;25.20;91.60;;;;;;5022055;28;20378;-80
2021/05/26 07:06:14;;;;;;;5.65;1.38;;;24.10;93.20;;;;;;5023349;28;20482;-81
2021/05/26 07:08:40;;;;;;;6.22;1.48;;;23.20;94.00;;;;;;5017122;28;20088;-79
2021/05/26 07:11:06;;;;;;;3.70;1.00;;;22.50;95.20;;;;;;5016716;28;20076;-81
2021/05/26 07:13:31;;;;;;;4.88;1.40;;;22.10;95.70;;;;;;5022016;28;20588;-80
2021/05/26 07:15:57;;;;;;;3.08;1.20;;;21.90;96.50;;;;;;5026167;28;20033;-79
2021/05/26 07:18:23;;;;;;;11.52;1.42;;;21.80;96.40;;;;;;5008738;28;20017;-80
2021/05/26 07:20:50;;;;;;;18.38;1.10;;;21.70;96.80;;;;;;5025431;28;20048;-82
2021/05/26 07:23:18;;;;;;;4.53;1.02;;;21.60;97.10;;;;;;5000558;28;20061;-80
2021/05/26 07:25:44;;;;;;;9.80;1.30;;;21.60;97.50;;;;;;5029738;28;20096;-81
2021/05/26 07:28:09;;;;;;;15.15;1.50;;;21.80;97.20;;;;;;5002663;28;20553;-86
2021/05/26 07:30:35;;;;;;;10.20;1.30;;;21.90;97.80;;;;;;5014686;28;20486;-82
2021/05/26 07:33:01;;;;;;;7.07;1.10;;;22.00;97.40;;;;;;5011871;28;20493;-82
2021/05/26 07:35:27;;;;;;;7.88;1.20;;;22.10;97.10;;;;;;4995019;28;20120;-81
2021/05/26 07:37:52;;;;;;;10.25;1.20;;;21.80;97.00;;;;;;4994832;28;20055;-82
2021/05/26 07:40:18;;;;;;;3.45;1.17;;;21.60;97.40;;;;;;5020855;28;20513;-82
2021/05/26 07:42:44;;;;;;;4.68;1.30;;;21.70;98.30;;;;;;5013796;28;20414;-78
2021/05/26 07:45:10;;;;;;;7.85;1.48;;;21.80;97.80;;;;;;4993510;28;20042;-84
2021/05/26 07:47:36;;;;;;;4.63;1.50;;;22.00;97.50;;;;;;5011456;28;20036;-81
2021/05/26 07:50:04;;;;;;;5.68;1.60;;;22.10;98.50;;;;;;5011689;28;20034;-82
2021/05/26 07:52:30;;;;;;;3.13;1.30;;;22.30;98.20;;;;;;5011194;28;20026;-83
2021/05/26 07:54:57;;;;;;;5.20;1.52;;;22.40;98.20;;;;;;5023128;28;20022;-78
2021/05/26 07:57:23;;;;;;;10.45;1.30;;;22.50;97.90;;;;;;5029825;28;20040;-76
2021/05/26 07:59:48;;;;;;;4.18;1.10;;;22.50;97.40;;;;;;5021734;28;20393;-78
2021/05/26 08:02:15;;;;;;;4.93;1.30;;;22.60;96.50;;;;;;5024242;28;20576;-77
2021/05/26 08:04:41;;;;;;;4.95;1.50;;;22.50;96.90;;;;;;5025713;28;20496;-78
2021/05/26 08:07:10;;;;;;;24.10;2.35;;;22.50;97.40;;;;;;5019590;28;20110;-78
2021/05/26 08:09:37;;;;;;;5.65;1.90;;;22.80;97.50;;;;;;5016875;28;20409;-78
2021/05/26 08:12:03;;;;;;;5.05;1.13;;;22.80;96.40;;;;;;5019347;28;20445;-77
2021/05/26 08:14:31;;;;;;;6.35;1.58;;;22.90;96.60;;;;;;5019875;28;20077;-78
2021/05/26 08:16:59;;;;;;;9.13;2.17;;;23.00;97.00;;;;;;5011535;28;20022;-77
2021/05/26 08:19:25;;;;;;;6.18;1.35;;;23.20;97.70;;;;;;5015827;28;20054;-78
2021/05/26 08:21:51;;;;;;;7.63;1.42;;;23.30;95.90;;;;;;5015972;28;20027;-78
2021/05/26 08:24:17;;;;;;;2.25;1.20;;;23.30;96.80;;;;;;5024101;28;20465;-77
2021/05/26 08:26:43;;;;;;;5.38;1.10;;;23.30;96.00;;;;;;5024943;28;20056;-79
2021/05/26 08:29:09;;;;;;;13.65;2.13;;;23.20;95.80;;;;;;5022082;28;20261;-79
2021/05/26 08:31:35;;;;;;;3.10;0.90;;;23.50;96.40;;;;;;5015541;28;20028;-77
2021/05/26 08:34:02;;;;;;;2.40;1.13;;;23.60;96.20;;;;;;5003195;28;20022;-78
2021/05/26 08:36:27;;;;;;;6.68;1.75;;;23.90;96.50;;;;;;5015545;28;20045;-77
2021/05/26 08:38:53;;;;;;;11.57;2.45;;;24.00;96.20;;;;;;5008035;28;20017;-79
2021/05/26 08:41:21;;;;;;;7.13;1.70;;;24.20;97.20;;;;;;5027652;28;20099;-79
2021/05/26 08:43:47;;;;;;;12.45;2.17;;;24.50;96.60;;;;;;5025723;28;20394;-78
2021/05/26 08:46:13;;;;;;;4.22;1.40;;;24.70;96.10;;;;;;5014674;28;20022;-80
2021/05/26 08:48:41;;;;;;;44.67;4.97;;;24.80;95.70;;;;;;5015238;28;20437;-80
2021/05/26 08:51:07;;;;;;;9.00;1.58;;;25.00;96.50;;;;;;5024324;28;20075;-78
2021/05/26 08:53:36;;;;;;;5.35;1.33;;;25.30;95.80;;;;;;5021003;28;20107;-78
2021/05/26 08:56:01;;;;;;;4.57;1.60;;;25.50;95.30;;;;;;5029500;28;20038;-78
2021/05/26 08:58:27;;;;;;;12.63;2.28;;;25.60;94.50;;;;;;5029970;28;20466;-78
2021/05/26 09:00:53;;;;;;;4.53;1.75;;;25.60;94.50;;;;;;5025943;28;20044;-78
2021/05/26 09:03:19;;;;;;;6.93;1.63;;;25.70;94.80;;;;;;5022641;28;20026;-79
2021/05/26 09:05:52;;;;;;;12.30;1.65;;;25.40;94.60;;;;;;5014509;28;20467;-78
2021/05/26 09:08:22;;;;;;;5.32;1.20;;;25.30;94.60;;;;;;5009322;28;20084;-78
2021/05/26 09:10:54;;;;;;;6.18;1.58;;;25.10;94.10;;;;;;5008932;28;20496;-77
2021/05/26 09:13:26;;;;;;;;;;;24.90;94.00;;;;;;5015590;28;20072;-78
2021/05/26 09:15:52;;;;;;;7.13;2.13;;;24.80;94.90;;;;;;5001384;28;20000;-78
2021/05/26 09:18:17;;;;;;;8.45;1.67;;;24.70;95.80;;;;;;4998046;28;20112;-79
2021/05/26 09:20:46;;;;;;;6.57;1.42;;;24.80;95.90;;;;;;5026982;28;20067;-79
2021/05/26 09:23:16;;;;;;;12.65;1.77;;;24.90;96.40;;;;;;5026328;28;20028;-78
2021/05/26 09:25:45;;;;;;;6.00;1.83;;;25.00;96.70;;;;;;5024715;28;20026;-79
2021/05/26 09:28:36;;;;;;;5.35;1.58;;;25.20;97.20;;;;;;5027359;28;20017;-78
2021/05/26 09:31:07;;;;;;;5.35;1.70;;;25.20;96.90;;;;;;5021250;28;20108;-79
2021/05/26 09:33:40;;;;;;;14.57;1.95;;;25.10;97.00;;;;;;4990356;28;20022;-79
2021/05/26 09:36:11;;;;;;;8.23;1.83;;;25.10;97.00;;;;;;5024794;28;20052;-79
2021/05/26 09:38:38;;;;;;;;;;;25.10;97.60;;;;;;5014597;28;20474;-79
2021/05/26 09:41:16;;;;;;;10.23;2.33;;;25.20;97.30;;;;;;5014260;28;19996;-79
2021/05/26 09:43:46;;;;;;;9.48;1.98;;;25.30;97.80;;;;;;5024621;28;20017;-79
2021/05/26 09:46:34;;;;;;;8.07;1.80;;;25.20;97.50;;;;;;5024197;28;20091;-79
2021/05/26 09:49:20;;;;;;;8.00;2.20;;;25.00;98.50;;;;;;5015830;28;20038;-79
2021/05/26 09:51:58;;;;;;;18.48;2.10;;;24.90;98.60;;;;;;5016096;28;20046;-80
2021/05/26 09:54:32;;;;;;;7.43;1.77;;;24.60;99.10;;;;;;4997311;28;20025;-78
2021/05/26 09:57:03;;;;;;;14.57;2.20;;;24.50;99.60;;;;;;5024795;28;20013;-81
2021/05/26 09:59:31;;;;;;;8.80;1.90;;;24.50;99.90;;;;;;5026549;28;20075;-81
2021/05/26 10:01:58;;;;;;;16.92;2.40;;;24.50;99.90;;;;;;5024245;28;20113;-79
2021/05/26 10:04:24;;;;;;;20.40;2.28;;;24.50;99.90;;;;;;5027297;28;20033;-81
2021/05/26 10:06:53;;;;;;;14.23;2.33;;;24.50;99.90;;;;;;5026402;28;20029;-80
2021/05/26 10:09:22;;;;;;;16.02;2.53;;;24.60;99.90;;;;;;5006312;28;20470;-79
2021/05/26 10:11:50;;;;;;;10.98;2.05;;;24.70;99.90;;;;;;5030420;28;20099;-80
2021/05/26 10:14:17;;;;;;;8.60;2.55;;;24.60;99.90;;;;;;5027609;28;20025;-80
2021/05/26 10:16:43;;;;;;;6.75;1.92;;;24.50;99.90;;;;;;5020403;28;20033;-81
2021/05/26 10:19:13;;;;;;;6.03;1.83;;;24.40;99.90;;;;;;5024530;28;20033;-81
2021/05/26 10:21:40;;;;;;;15.00;1.80;;;24.10;99.90;;;;;;5021515;28;20025;-79
2021/05/26 10:24:07;;;;;;;11.25;1.98;;;24.00;99.90;;;;;;5006928;28;20041;-80
2021/05/26 10:27:00;;;;;;;5.97;1.45;;;23.80;99.90;;;;;;5023947;28;20017;-80
2021/05/26 10:29:26;;;;;;;7.25;2.15;;;23.70;99.90;;;;;;5023560;28;20033;-81
2021/05/26 10:31:52;;;;;;;6.85;2.10;;;23.80;99.90;;;;;;5026773;28;20529;-79
2021/05/26 10:34:18;;;;;;;9.27;2.17;;;23.80;99.90;;;;;;5007148;28;20045;-79
2021/05/26 10:36:55;;;;;;;7.32;1.77;;;23.90;99.90;;;;;;5023515;28;20037;-79
2021/05/26 10:39:30;;;;;;;15.15;2.28;;;23.80;99.90;;;;;;5025635;28;20177;-80
2021/05/26 10:41:56;;;;;;;6.93;1.70;;;23.70;99.90;;;;;;5026031;28;20026;-79
2021/05/26 10:44:25;;;;;;;20.40;2.72;;;23.80;99.90;;;;;;5028828;28;20030;-77
2021/05/26 10:46:50;;;;;;;19.58;2.20;;;23.60;99.90;;;;;;5024662;28;20081;-77
2021/05/26 10:49:17;;;;;;;5.55;1.77;;;23.50;99.90;;;;;;5028379;28;20493;-78
2021/05/26 10:51:51;;;;;;;6.53;1.83;;;23.40;99.90;;;;;;5029905;28;20025;-78
2021/05/26 10:54:39;;;;;;;7.60;1.52;;;23.30;99.90;;;;;;5029444;28;20040;-77
2021/05/26 10:57:07;;;;;;;6.65;2.13;;;23.20;99.90;;;;;;5028039;28;20087;-77
2021/05/26 10:59:34;;;;;;;11.15;2.20;;;23.10;99.90;;;;;;5025407;28;20025;-77
2021/05/26 11:02:02;;;;;;;9.40;2.17;;;23.00;99.90;;;;;;5028607;28;20017;-76
2021/05/26 11:04:29;;;;;;;6.25;1.67;;;23.00;99.90;;;;;;5009448;28;20071;-77
2021/05/26 11:07:28;;;;;;;4.70;1.73;;;23.00;99.90;;;;;;5019316;28;20061;-76
2021/05/26 11:10:02;;;;;;;11.35;2.25;;;23.10;99.90;;;;;;5005703;28;20029;-77
2021/05/26 11:12:29;;;;;;;9.20;2.33;;;22.90;99.90;;;;;;5027123;28;20108;-76
2021/05/26 11:14:55;;;;;;;13.52;2.00;;;22.90;99.90;;;;;;5025950;28;20060;-77
2021/05/26 11:17:27;;;;;;;10.10;1.80;;;22.90;99.90;;;;;;5009082;28;20021;-75
2021/05/26 11:20:11;;;;;;;8.02;1.92;;;22.90;99.90;;;;;;5023501;28;20022;-76
2021/05/26 11:22:37;;;;;;;8.82;1.73;;;22.90;99.90;;;;;;5027140;28;20025;-77
2021/05/26 11:25:03;;;;;;;3.78;1.67;;;22.90;99.90;;;;;;5017928;28;20029;-76
2021/05/26 11:27:29;;;;;;;5.70;1.88;;;22.70;99.90;;;;;;5021999;28;20033;-76
2021/05/26 11:29:57;;;;;;;10.70;1.90;;;22.60;99.90;;;;;;5014758;28;20059;-75
2021/05/26 11:32:24;;;;;;;2.95;1.60;;;22.50;99.90;;;;;;5013544;28;20022;-76
2021/05/26 11:34:52;;;;;;;12.27;2.65;;;22.40;99.90;;;;;;5012741;28;20025;-76
2021/05/26 11:37:40;;;;;;;24.20;1.90;;;22.50;99.90;;;;;;5013507;28;20530;-76
2021/05/26 11:40:25;;;;;;;4.40;1.70;;;22.60;99.90;;;;;;5010407;28;20032;-75
2021/05/26 11:42:53;;;;;;;3.03;1.52;;;22.50;99.90;;;;;;5021547;28;20033;-76
2021/05/26 11:45:19;;;;;;;6.90;1.90;;;22.50;99.90;;;;;;5022507;28;20013;-79
2021/05/26 11:48:04;;;;;;;7.13;2.05;;;22.50;99.90;;;;;;5020160;28;20034;-76
2021/05/26 11:50:31;;;;;;;13.45;2.40;;;22.60;99.90;;;;;;5022789;28;20124;-77
2021/05/26 11:53:00;;;;;;;7.30;1.52;;;22.60;99.90;;;;;;5016590;28;20165;-76
2021/05/26 11:55:26;;;;;;;7.97;2.42;;;22.60;99.90;;;;;;5020645;28;20504;-76
2021/05/26 11:57:54;;;;;;;19.98;3.05;;;22.60;99.90;;;;;;5024996;28;20045;-76
2021/05/26 12:00:38;;;;;;;21.33;3.20;;;22.60;99.90;;;;;;5024671;28;20093;-76
2021/05/26 12:03:14;;;;;;;7.32;2.00;;;22.50;99.90;;;;;;5008479;28;20021;-76
2021/05/26 12:05:43;;;;;;;12.98;2.10;;;22.50;99.90;;;;;;5022140;28;20022;-76
2021/05/26 12:08:13;;;;;;;16.25;2.33;;;22.40;99.90;;;;;;5024705;28;20058;-76
2021/05/26 12:10:39;;;;;;;13.70;2.70;;;22.30;99.90;;;;;;5025403;28;20026;-76
2021/05/26 12:13:06;;;;;;;15.00;3.00;;;22.30;99.90;;;;;;5024821;28;20053;-78
2021/05/26 12:15:32;;;;;;;15.07;2.95;;;22.40;99.90;;;;;;5012058;28;20156;-77
2021/05/26 12:17:58;;;;;;;13.90;2.65;;;22.30;99.90;;;;;;5005332;28;20025;-76
2021/05/26 12:20:24;;;;;;;10.63;2.78;;;22.40;99.90;;;;;;5022931;28;20108;-76
2021/05/26 12:22:52;;;;;;;10.23;2.33;;;22.40;99.90;;;;;;5011048;28;20469;-77
2021/05/26 12:25:19;;;;;;;7.10;2.05;;;22.40;99.90;;;;;;5023583;28;20022;-77
2021/05/26 12:27:47;;;;;;;6.63;2.13;;;22.30;99.90;;;;;;5014454;28;20483;-76
2021/05/26 12:30:26;;;;;;;7.63;2.35;;;22.20;99.90;;;;;;5017782;28;20025;-76
2021/05/26 12:33:11;;;;;;;6.93;2.30;;;22.20;99.90;;;;;;5017546;28;20041;-78
2021/05/26 12:35:38;;;;;;;7.47;2.08;;;22.30;99.90;;;;;;5007779;28;20042;-77
2021/05/26 12:38:15;;;;;;;5.43;1.88;;;22.50;99.90;;;;;;5008314;28;20108;-78
2021/05/26 12:40:41;;;;;;;11.80;2.47;;;22.60;99.90;;;;;;5007450;28;20018;-76
2021/05/26 12:43:29;;;;;;;9.15;2.25;;;22.60;99.90;;;;;;5019951;28;20026;-77
2021/05/26 12:45:56;;;;;;;9.57;2.30;;;22.70;99.90;;;;;;5017048;28;20053;-76
2021/05/26 12:48:22;;;;;;;7.35;1.83;;;22.70;99.90;;;;;;5012057;28;20172;-77
2021/05/26 12:50:49;;;;;;;12.82;2.40;;;22.80;99.90;;;;;;5011592;28;20037;-75